createdAt,value
2024-03-04T00:01:18.355Z,90.10
2024-03-04T00:03:44.875Z,89.18
2024-03-04T00:06:11.266Z,90.94
2024-03-04T00:08:37.676Z,88.79
2024-03-04T00:11:05.787Z,90.11
2024-03-04T00:13:32.400Z,88.36
2024-03-04T00:15:59.118Z,86.09
2024-03-04T00:18:25.560Z,86.58
2024-03-04T00:20:51.964Z,86.32
2024-03-04T00:23:18.377Z,87.43
2024-03-04T00:25:44.895Z,87.68
2024-03-04T00:28:12.709Z,87.43
2024-03-04T00:30:39.168Z,85.78
2024-03-04T00:33:05.601Z,86.17
2024-03-04T00:35:32.032Z,85.92
2024-03-04T00:37:58.480Z,84.20
2024-03-04T00:40:24.962Z,82.74
2024-03-04T00:42:52.078Z,82.25
2024-03-04T00:45:21.508Z,84.62
2024-03-04T00:47:47.983Z,85.05
2024-03-04T00:50:14.455Z,85.16
2024-03-04T00:52:40.956Z,85.74
2024-03-04T00:55:08.555Z,85.49
2024-03-04T00:57:34.935Z,84.19
2024-03-04T01:00:01.550Z,83.81
2024-03-04T01:02:29.320Z,84.85
2024-03-04T01:04:55.747Z,85.89
2024-03-04T01:07:22.197Z,86.63
2024-03-04T01:09:48.587Z,85.99
2024-03-04T01:12:15.016Z,84.81
2024-03-04T01:14:41.453Z,84.87
2024-03-04T01:17:07.969Z,85.57
2024-03-04T01:19:35.742Z,87.43
2024-03-04T01:22:02.223Z,88.80
2024-03-04T01:24:28.654Z,87.16
2024-03-04T01:26:55.041Z,88.14
2024-03-04T01:29:21.470Z,88.28
2024-03-04T01:31:47.916Z,89.27
2024-03-04T01:34:14.373Z,87.68
2024-03-04T01:36:42.129Z,87.72
2024-03-04T01:39:08.520Z,86.35
2024-03-04T01:41:36.626Z,87.24
2024-03-04T01:44:03.453Z,88.02
2024-03-04T01:46:30.199Z,88.50
2024-03-04T01:48:56.786Z,88.88
2024-03-04T01:51:23.298Z,89.35
2024-03-04T01:53:51.402Z,89.33
2024-03-04T01:56:17.923Z,88.90
2024-03-04T01:58:47.868Z,88.90
2024-03-04T02:01:15.499Z,90.06
2024-03-04T02:03:42.011Z,89.06
2024-03-04T02:06:09.034Z,88.79
2024-03-04T02:08:36.163Z,88.07
2024-03-04T02:11:05.608Z,88.79
2024-03-04T02:13:32.786Z,88.45
2024-03-04T02:15:59.288Z,89.67
2024-03-04T02:18:25.933Z,89.37
2024-03-04T02:20:55.993Z,89.09
2024-03-04T02:23:23.876Z,89.23
2024-03-04T02:25:54.678Z,88.83
2024-03-04T02:28:21.506Z,87.81
2024-03-04T02:30:48.079Z,89.84
2024-03-04T02:33:16.368Z,89.87
2024-03-04T02:35:42.979Z,90.52
2024-03-04T02:38:10.278Z,90.55
2024-03-04T02:40:38.089Z,89.02
2024-03-04T02:43:04.630Z,87.50
2024-03-04T02:45:31.060Z,88.03
2024-03-04T02:47:57.489Z,90.34
2024-03-04T02:50:23.931Z,92.03
2024-03-04T02:52:50.615Z,90.88
2024-03-04T02:55:17.115Z,89.87
2024-03-04T02:57:44.914Z,89.03
2024-03-04T03:00:12.740Z,88.06
2024-03-04T03:02:39.127Z,89.96
2024-03-04T03:05:06.063Z,89.92
2024-03-04T03:07:32.506Z,89.22
2024-03-04T03:09:59.002Z,89.15
2024-03-04T03:12:25.425Z,89.29
2024-03-04T03:14:53.188Z,90.80
2024-03-04T03:17:19.605Z,90.61
2024-03-04T03:19:46.087Z,90.17
2024-03-04T03:22:12.600Z,89.36
2024-03-04T03:24:38.998Z,89.50
2024-03-04T03:27:05.402Z,92.69
2024-03-04T03:29:31.796Z,91.79
2024-03-04T03:31:59.495Z,89.67
2024-03-04T03:34:26.124Z,90.71
2024-03-04T03:36:52.531Z,91.38
2024-03-04T03:39:18.927Z,90.35
2024-03-04T03:41:45.384Z,88.94
2024-03-04T03:44:11.795Z,89.97
2024-03-04T03:46:38.267Z,89.38
2024-03-04T03:49:06.253Z,89.66
2024-03-04T03:51:32.642Z,91.31
2024-03-04T03:53:59.029Z,92.83
2024-03-04T03:56:25.473Z,93.23
2024-03-04T03:58:51.944Z,93.92
2024-03-04T04:01:18.613Z,93.74
2024-03-04T04:03:45.163Z,91.58
2024-03-04T04:06:12.896Z,91.35
2024-03-04T04:08:40.927Z,92.21
2024-03-04T04:11:07.377Z,93.02
2024-03-04T04:13:33.830Z,93.08
2024-03-04T04:16:00.262Z,93.78
2024-03-04T04:18:26.693Z,92.04
2024-03-04T04:20:53.138Z,90.71
2024-03-04T04:23:20.854Z,90.48
2024-03-04T04:25:47.432Z,92.92
2024-03-04T04:28:13.915Z,95.08
2024-03-04T04:30:40.339Z,94.69
2024-03-04T04:33:06.906Z,93.25
2024-03-04T04:35:33.303Z,93.07
2024-03-04T04:37:59.782Z,93.31
2024-03-04T04:40:27.524Z,90.85
2024-03-04T04:42:54.049Z,92.65
2024-03-04T04:45:21.792Z,94.67
2024-03-04T04:47:48.363Z,95.14
2024-03-04T04:50:15.053Z,94.32
2024-03-04T04:52:41.505Z,95.39
2024-03-04T04:55:08.415Z,95.30
2024-03-04T04:57:36.168Z,92.40
2024-03-04T05:00:02.598Z,91.72
2024-03-04T05:02:29.329Z,89.23
2024-03-04T05:04:58.495Z,88.30
2024-03-04T05:07:25.503Z,91.55
2024-03-04T05:09:51.991Z,91.83
2024-03-04T05:12:18.437Z,89.32
2024-03-04T05:14:47.375Z,88.36
2024-03-04T05:17:13.904Z,90.93
2024-03-04T05:19:40.395Z,91.57
2024-03-04T05:22:07.234Z,92.45
2024-03-04T05:24:33.682Z,92.55
2024-03-04T05:27:00.070Z,92.79
2024-03-04T05:29:26.442Z,93.64
2024-03-04T05:31:55.031Z,94.42
2024-03-04T05:34:21.549Z,95.41
2024-03-04T05:36:47.944Z,98.94
2024-03-04T05:39:14.482Z,98.31
2024-03-04T05:41:40.874Z,100.00
2024-03-04T05:44:07.281Z,100.00
2024-03-04T05:46:33.727Z,98.82
2024-03-04T05:49:01.453Z,100.00
2024-03-04T05:51:27.876Z,100.00
2024-03-04T05:53:54.396Z,98.22
2024-03-04T05:56:20.828Z,97.47
2024-03-04T05:58:47.548Z,98.41
2024-03-04T06:01:14.645Z,97.41
2024-03-04T06:03:41.113Z,95.55
2024-03-04T06:06:08.959Z,95.06
2024-03-04T06:08:35.393Z,94.43
2024-03-04T06:11:01.837Z,96.01
2024-03-04T06:13:28.388Z,98.92
2024-03-04T06:15:54.848Z,100.00
2024-03-04T06:18:21.258Z,100.00
2024-03-04T06:20:47.640Z,100.00
2024-03-04T06:23:15.457Z,100.00
2024-03-04T06:25:41.917Z,100.00
2024-03-04T06:28:08.406Z,100.00
2024-03-04T06:30:34.861Z,100.00
2024-03-04T06:33:01.331Z,100.00
2024-03-04T06:35:27.853Z,100.00
2024-03-04T06:37:54.257Z,100.00
2024-03-04T06:40:22.029Z,100.00
2024-03-04T06:42:48.538Z,100.00
2024-03-04T06:45:15.030Z,100.00
2024-03-04T06:47:41.436Z,100.00
2024-03-04T06:50:08.016Z,100.00
2024-03-04T06:52:34.503Z,100.00
2024-03-04T06:55:01.104Z,97.90
2024-03-04T06:57:31.753Z,96.67
2024-03-04T06:59:59.648Z,96.81
2024-03-04T07:02:26.043Z,99.26
2024-03-04T07:04:52.526Z,98.42
2024-03-04T07:07:19.027Z,96.57
2024-03-04T07:09:45.452Z,93.99
2024-03-04T07:12:11.837Z,95.34
2024-03-04T07:14:39.628Z,98.56
2024-03-04T07:17:05.995Z,100.00
2024-03-04T07:19:32.423Z,98.75
2024-03-04T07:21:58.890Z,99.15
2024-03-04T07:24:25.363Z,100.00
2024-03-04T07:26:51.829Z,100.00
2024-03-04T07:29:26.945Z,100.00
2024-03-04T07:31:59.427Z,99.21
2024-03-04T07:34:25.895Z,96.40
2024-03-04T07:36:52.323Z,96.63
2024-03-04T07:39:18.724Z,97.04
2024-03-04T07:41:45.362Z,98.42
2024-03-04T07:44:11.819Z,96.26
2024-03-04T07:46:40.324Z,95.67
2024-03-04T07:49:09.473Z,93.51
2024-03-04T07:51:36.071Z,93.57
2024-03-04T07:54:02.561Z,93.40
2024-03-04T07:56:29.003Z,91.93
2024-03-04T07:58:55.389Z,96.35
2024-03-04T08:01:21.864Z,98.76
2024-03-04T08:03:48.320Z,95.87
2024-03-04T08:06:16.059Z,99.42
2024-03-04T08:08:42.569Z,98.22
2024-03-04T08:11:09.019Z,94.10
2024-03-04T08:13:35.763Z,98.55
2024-03-04T08:16:02.337Z,97.76
2024-03-04T08:18:28.794Z,91.55
2024-03-04T08:20:55.226Z,95.05
2024-03-04T08:23:22.969Z,91.01
2024-03-04T08:25:49.752Z,89.03
2024-03-04T08:28:23.567Z,91.24
2024-03-04T08:30:55.039Z,89.41
2024-03-04T08:33:21.521Z,89.25
2024-03-04T08:35:47.929Z,86.38
2024-03-04T08:38:14.428Z,90.75
2024-03-04T08:40:42.235Z,93.43
2024-03-04T08:43:08.718Z,93.41
2024-03-04T08:45:35.143Z,90.32
2024-03-04T08:48:01.698Z,90.79
2024-03-04T08:50:28.142Z,89.61
2024-03-04T08:52:54.585Z,89.32
2024-03-04T08:55:21.042Z,92.05
2024-03-04T08:57:48.834Z,84.84
2024-03-04T09:00:16.572Z,82.39
2024-03-04T09:02:43.035Z,84.29
2024-03-04T09:05:09.742Z,85.78
2024-03-04T09:07:36.420Z,91.59
2024-03-04T09:10:03.172Z,93.02
2024-03-04T09:12:29.618Z,86.13
2024-03-04T09:14:57.357Z,83.90
2024-03-04T09:17:23.846Z,82.05
2024-03-04T09:19:50.350Z,86.73
2024-03-04T09:22:16.884Z,90.73
2024-03-04T09:24:43.640Z,90.86
2024-03-04T09:27:10.785Z,86.44
2024-03-04T09:29:37.317Z,85.94
2024-03-04T09:32:06.559Z,81.95
2024-03-04T09:34:33.065Z,83.41
2024-03-04T09:36:59.530Z,86.55
2024-03-04T09:39:25.919Z,82.44
2024-03-04T09:41:53.824Z,82.69
2024-03-04T09:44:20.776Z,81.16
2024-03-04T09:46:48.505Z,84.96
2024-03-04T09:49:18.480Z,87.92
2024-03-04T09:51:46.342Z,84.21
2024-03-04T09:54:14.807Z,84.16
2024-03-04T09:56:41.400Z,82.82
2024-03-04T09:59:07.882Z,89.56
2024-03-04T10:01:35.101Z,88.24
2024-03-04T10:04:01.858Z,87.64
2024-03-04T10:06:29.695Z,88.19
2024-03-04T10:08:56.149Z,88.75
2024-03-04T10:11:22.590Z,84.74
2024-03-04T10:13:51.227Z,86.53
2024-03-04T10:16:17.676Z,85.55
2024-03-04T10:18:59.499Z,83.04
2024-03-04T10:21:29.354Z,90.92
2024-03-04T10:23:57.972Z,87.66
2024-03-04T10:26:24.560Z,87.31
2024-03-04T10:28:52.867Z,87.82
2024-03-04T10:31:19.417Z,90.06
2024-03-04T10:33:45.921Z,87.60
2024-03-04T10:36:16.963Z,89.03
2024-03-04T10:38:46.294Z,85.99
2024-03-04T10:41:19.817Z,87.25
2024-03-04T10:43:47.454Z,83.10
2024-03-04T10:46:15.958Z,80.22
2024-03-04T10:48:42.630Z,80.99
2024-03-04T10:51:09.142Z,86.97
2024-03-04T10:53:35.698Z,89.05
2024-03-04T10:56:05.919Z,83.78
2024-03-04T10:58:33.449Z,82.01
2024-03-04T11:01:04.747Z,81.68
2024-03-04T11:03:31.716Z,86.74
2024-03-04T11:06:00.478Z,83.02
2024-03-04T11:08:31.064Z,86.41
2024-03-04T11:11:03.785Z,86.37
2024-03-04T11:13:37.104Z,88.95
2024-03-04T11:16:08.514Z,86.69
2024-03-04T11:18:46.113Z,84.71
2024-03-04T11:21:13.557Z,82.47
2024-03-04T11:23:40.154Z,83.25
2024-03-04T11:26:08.147Z,79.21
2024-03-04T11:28:40.200Z,76.73
2024-03-04T11:31:10.738Z,78.82
2024-03-04T11:33:41.262Z,77.94
2024-03-04T11:36:08.861Z,82.08
2024-03-04T11:38:40.429Z,80.67
2024-03-04T11:41:06.978Z,84.02
2024-03-04T11:43:45.101Z,79.27
2024-03-04T11:46:13.202Z,79.77
2024-03-04T11:48:39.804Z,77.87
2024-03-04T11:51:06.715Z,75.25
2024-03-04T11:53:33.232Z,78.96
2024-03-04T11:55:59.639Z,79.47
2024-03-04T11:58:26.074Z,77.86
2024-03-04T12:01:00.929Z,78.03
2024-03-04T12:03:34.510Z,76.73
2024-03-04T12:06:00.981Z,79.09
2024-03-04T12:08:42.590Z,79.62
2024-03-04T12:11:13.934Z,79.07
2024-03-04T12:13:40.512Z,78.41
2024-03-04T12:16:08.390Z,84.59
2024-03-04T12:18:34.818Z,82.12
2024-03-04T12:21:04.784Z,82.88
2024-03-04T12:23:31.253Z,83.12
2024-03-04T12:26:09.996Z,79.49
2024-03-04T12:28:36.528Z,81.50
2024-03-04T12:31:10.786Z,80.76
2024-03-04T12:33:37.229Z,83.33
2024-03-04T12:36:04.331Z,79.26
2024-03-04T12:38:31.169Z,78.91
2024-03-04T12:40:57.622Z,80.65
2024-03-04T12:43:24.049Z,83.56
2024-03-04T12:45:50.891Z,82.88
2024-03-04T12:48:19.708Z,80.35
2024-03-04T12:50:46.584Z,83.47
2024-03-04T12:53:13.016Z,85.37
2024-03-04T12:55:39.812Z,86.48
2024-03-04T12:58:06.279Z,87.92
2024-03-04T13:00:32.758Z,87.30
2024-03-04T13:02:59.166Z,84.50
2024-03-04T13:05:26.944Z,86.53
2024-03-04T13:07:53.674Z,87.16
2024-03-04T13:10:20.170Z,86.92
2024-03-04T13:12:46.601Z,88.83
2024-03-04T13:15:13.319Z,89.54
2024-03-04T13:17:40.907Z,90.08
2024-03-04T13:20:09.450Z,90.94
2024-03-04T13:22:37.421Z,90.80
2024-03-04T13:25:04.199Z,89.87
2024-03-04T13:27:30.637Z,90.92
2024-03-04T13:29:57.066Z,92.82
2024-03-04T13:32:23.678Z,90.02
2024-03-04T13:34:50.277Z,92.46
2024-03-04T13:37:16.896Z,90.90
2024-03-04T13:39:44.729Z,91.08
2024-03-04T13:42:11.581Z,92.51
2024-03-04T13:44:38.810Z,92.78
2024-03-04T13:47:05.967Z,89.46
2024-03-04T13:49:32.447Z,90.63
2024-03-04T13:51:58.899Z,88.09
2024-03-04T13:54:25.325Z,89.90
2024-03-04T13:56:53.180Z,88.61
2024-03-04T13:59:19.624Z,90.08
2024-03-04T14:01:46.779Z,89.43
2024-03-04T14:04:13.334Z,85.82
2024-03-04T14:06:40.330Z,87.21
2024-03-04T14:09:06.859Z,84.72
2024-03-04T14:11:33.343Z,86.62
2024-03-04T14:14:01.114Z,86.71
2024-03-04T14:16:27.622Z,86.87
2024-03-04T14:18:54.081Z,87.10
2024-03-04T14:21:20.595Z,82.57
2024-03-04T14:23:46.998Z,84.29
2024-03-04T14:26:14.772Z,88.08
2024-03-04T14:28:41.268Z,85.49
2024-03-04T14:31:09.053Z,87.43
2024-03-04T14:33:35.543Z,84.39
2024-03-04T14:36:02.127Z,87.77
2024-03-04T14:38:28.580Z,86.59
2024-03-04T14:40:58.503Z,83.28
2024-03-04T14:43:25.375Z,83.88
2024-03-04T14:45:51.783Z,82.12
2024-03-04T14:48:19.566Z,83.43
2024-03-04T14:50:46.005Z,85.12
2024-03-04T14:53:12.476Z,82.66
2024-03-04T14:55:38.921Z,88.48
2024-03-04T14:58:05.481Z,88.48
2024-03-04T15:00:31.990Z,85.51
2024-03-04T15:02:58.527Z,88.06
2024-03-04T15:05:26.302Z,87.48
2024-03-04T15:07:52.853Z,88.22
2024-03-04T15:10:19.394Z,86.79
2024-03-04T15:12:45.924Z,90.00
2024-03-04T15:15:13.489Z,87.92
2024-03-04T15:17:39.947Z,87.20
2024-03-04T15:20:07.724Z,89.40
2024-03-04T15:22:35.504Z,88.92
2024-03-04T15:25:01.946Z,90.54
2024-03-04T15:27:28.361Z,90.74
2024-03-04T15:29:54.812Z,89.83
2024-03-04T15:32:21.271Z,89.01
2024-03-04T15:34:47.850Z,89.43
2024-03-04T15:37:14.366Z,88.00
2024-03-04T15:39:42.138Z,87.25
2024-03-04T15:42:08.801Z,89.25
2024-03-04T15:44:35.190Z,90.46
2024-03-04T15:47:01.658Z,91.15
2024-03-04T15:49:28.147Z,92.48
2024-03-04T15:51:54.588Z,91.75
2024-03-04T15:54:20.998Z,89.52
2024-03-04T15:56:48.778Z,90.83
2024-03-04T15:59:15.424Z,92.44
2024-03-04T16:01:41.886Z,91.12
2024-03-04T16:04:08.415Z,87.70
2024-03-04T16:06:35.077Z,86.02
2024-03-04T16:09:01.584Z,87.59
2024-03-04T16:11:28.045Z,92.17
2024-03-04T16:13:55.818Z,93.06
2024-03-04T16:16:22.259Z,94.08
2024-03-04T16:18:48.736Z,94.83
2024-03-04T16:21:15.295Z,92.34
2024-03-04T16:23:41.794Z,93.25
2024-03-04T16:26:08.375Z,91.52
2024-03-04T16:28:35.032Z,91.54
2024-03-04T16:31:05.496Z,90.84
2024-03-04T16:33:32.097Z,88.06
2024-03-04T16:35:58.468Z,87.95
2024-03-04T16:38:24.910Z,88.37
2024-03-04T16:40:51.475Z,89.38
2024-03-04T16:43:17.931Z,87.26
2024-03-04T16:45:44.447Z,87.94
2024-03-04T16:48:12.315Z,89.94
2024-03-04T16:50:38.803Z,90.87
2024-03-04T16:53:05.203Z,90.42
2024-03-04T16:55:34.604Z,92.96
2024-03-04T16:58:01.485Z,92.14
2024-03-04T17:00:27.929Z,92.89
2024-03-04T17:02:54.488Z,92.68
2024-03-04T17:05:22.225Z,92.89
2024-03-04T17:07:49.630Z,92.69
2024-03-04T17:10:16.784Z,90.51
2024-03-04T17:12:43.627Z,87.34
2024-03-04T17:15:10.618Z,87.33
2024-03-04T17:17:37.421Z,89.49
2024-03-04T17:20:04.465Z,88.94
2024-03-04T17:22:32.225Z,87.19
2024-03-04T17:24:58.777Z,90.63
2024-03-04T17:27:25.171Z,90.09
2024-03-04T17:29:51.575Z,90.17
2024-03-04T17:32:18.018Z,86.28
2024-03-04T17:34:44.623Z,86.93
2024-03-04T17:37:11.158Z,87.51
2024-03-04T17:39:38.932Z,86.97
2024-03-04T17:42:05.682Z,88.56
2024-03-04T17:44:32.095Z,85.75
2024-03-04T17:46:58.529Z,88.39
2024-03-04T17:49:24.982Z,87.72
2024-03-04T17:51:51.398Z,87.12
2024-03-04T17:54:17.805Z,88.11
2024-03-04T17:56:47.123Z,90.68
2024-03-04T17:59:13.714Z,90.90
2024-03-04T18:01:40.234Z,91.83
2024-03-04T18:04:06.725Z,90.66
2024-03-04T18:06:33.203Z,91.77
2024-03-04T18:08:59.669Z,88.49
2024-03-04T18:11:26.576Z,88.87
2024-03-04T18:13:54.422Z,87.37
2024-03-04T18:16:20.954Z,85.62
2024-03-04T18:18:47.453Z,86.77
2024-03-04T18:21:13.876Z,92.81
2024-03-04T18:23:40.283Z,88.54
2024-03-04T18:26:07.923Z,89.20
2024-03-04T18:28:35.173Z,90.30
2024-03-04T18:31:03.300Z,90.77
2024-03-04T18:33:29.978Z,89.35
2024-03-04T18:35:56.613Z,87.29
2024-03-04T18:38:23.086Z,92.49
2024-03-04T18:40:49.620Z,91.17
2024-03-04T18:43:16.265Z,92.44
2024-03-04T18:45:42.932Z,89.97
2024-03-04T18:48:10.776Z,91.57
2024-03-04T18:50:37.238Z,96.59
2024-03-04T18:53:03.968Z,96.86
2024-03-04T18:55:30.406Z,93.97
2024-03-04T18:57:56.867Z,92.25
2024-03-04T19:00:23.499Z,89.63
2024-03-04T19:02:49.937Z,88.04
2024-03-04T19:05:17.699Z,89.72
2024-03-04T19:07:44.175Z,90.69
2024-03-04T19:10:10.716Z,91.86
2024-03-04T19:12:37.714Z,92.46
2024-03-04T19:15:05.006Z,91.01
2024-03-04T19:17:31.522Z,89.91
2024-03-04T19:19:58.496Z,90.76
2024-03-04T19:22:26.396Z,88.22
2024-03-04T19:24:52.832Z,88.68
2024-03-04T19:27:19.235Z,92.97
2024-03-04T19:29:45.709Z,92.63
2024-03-04T19:32:12.151Z,88.38
2024-03-04T19:34:38.680Z,86.74
2024-03-04T19:37:05.136Z,86.79
2024-03-04T19:39:32.853Z,88.26
2024-03-04T19:42:01.148Z,90.42
2024-03-04T19:44:28.833Z,88.34
2024-03-04T19:46:55.430Z,90.46
2024-03-04T19:49:21.931Z,88.80
2024-03-04T19:51:48.411Z,88.21
2024-03-04T19:54:14.833Z,87.69
2024-03-04T19:56:42.566Z,87.93
2024-03-04T19:59:09.377Z,90.59
2024-03-04T20:01:35.829Z,89.35
2024-03-04T20:04:02.399Z,93.92
2024-03-04T20:06:28.829Z,93.31
2024-03-04T20:08:55.268Z,91.21
2024-03-04T20:11:21.774Z,89.96
2024-03-04T20:13:49.744Z,87.72
2024-03-04T20:16:16.974Z,88.63
2024-03-04T20:18:43.724Z,91.13
2024-03-04T20:21:10.745Z,88.49
2024-03-04T20:23:37.289Z,89.26
2024-03-04T20:26:04.119Z,91.91
2024-03-04T20:28:32.283Z,96.35
2024-03-04T20:31:01.369Z,94.65
2024-03-04T20:33:27.850Z,93.77
2024-03-04T20:35:54.249Z,95.45
2024-03-04T20:38:20.681Z,94.83
2024-03-04T20:40:47.195Z,94.29
2024-03-04T20:43:14.139Z,93.98
2024-03-04T20:45:40.965Z,92.98
2024-03-04T20:48:09.836Z,93.92
2024-03-04T20:50:36.840Z,94.51
2024-03-04T20:53:03.781Z,94.54
2024-03-04T20:55:30.446Z,93.20
2024-03-04T20:57:56.940Z,89.30
2024-03-04T21:00:23.396Z,88.27
2024-03-04T21:02:51.082Z,93.98
2024-03-04T21:05:20.410Z,90.54
2024-03-04T21:07:48.225Z,89.31
2024-03-04T21:10:17.275Z,92.63
2024-03-04T21:12:44.282Z,90.67
2024-03-04T21:15:11.383Z,95.83
2024-03-04T21:17:38.150Z,91.94
2024-03-04T21:20:05.483Z,88.54
2024-03-04T21:22:33.266Z,91.64
2024-03-04T21:24:59.702Z,92.79
2024-03-04T21:27:26.168Z,93.57
2024-03-04T21:29:52.608Z,97.31
2024-03-04T21:32:19.009Z,94.96
2024-03-04T21:34:45.469Z,93.76
2024-03-04T21:37:20.893Z,90.17
2024-03-04T21:39:52.232Z,90.23
2024-03-04T21:42:18.852Z,88.87
2024-03-04T21:44:46.218Z,88.60
2024-03-04T21:47:12.683Z,88.94
2024-03-04T21:49:39.542Z,88.32
2024-03-04T21:52:06.414Z,90.15
2024-03-04T21:54:32.854Z,90.41
2024-03-04T21:57:01.168Z,91.13
2024-03-04T21:59:28.005Z,93.40
2024-03-04T22:01:54.512Z,94.80
2024-03-04T22:04:22.688Z,92.63
2024-03-04T22:06:49.206Z,91.25
2024-03-04T22:09:15.924Z,91.24
2024-03-04T22:11:46.671Z,90.43
2024-03-04T22:14:15.589Z,89.30
2024-03-04T22:16:42.904Z,87.93
2024-03-04T22:19:10.192Z,87.81
2024-03-04T22:21:36.920Z,87.97
2024-03-04T22:24:03.937Z,89.30
2024-03-04T22:26:30.833Z,92.31
2024-03-04T22:28:57.951Z,92.81
2024-03-04T22:31:25.744Z,91.08
2024-03-04T22:33:52.155Z,90.71
2024-03-04T22:36:19.126Z,93.30
2024-03-04T22:38:45.558Z,100.00
2024-03-04T22:41:12.075Z,100.00
2024-03-04T22:43:38.673Z,100.00
2024-03-04T22:46:05.157Z,100.00
2024-03-04T22:48:33.266Z,98.27
2024-03-04T22:50:59.830Z,100.00
2024-03-04T22:53:26.265Z,100.00
2024-03-04T22:55:52.675Z,100.00
2024-03-04T22:58:19.156Z,100.00
2024-03-04T23:00:46.072Z,100.00
2024-03-04T23:03:12.528Z,100.00
2024-03-04T23:05:41.135Z,100.00
2024-03-04T23:08:08.028Z,100.00
2024-03-04T23:10:34.625Z,100.00
2024-03-04T23:13:01.148Z,100.00
2024-03-04T23:15:28.758Z,100.00
2024-03-04T23:17:55.189Z,100.00
2024-03-04T23:20:21.627Z,100.00
2024-03-04T23:22:49.467Z,100.00
2024-03-04T23:25:16.532Z,100.00
2024-03-04T23:27:43.068Z,100.00
2024-03-04T23:30:10.745Z,100.00
2024-03-04T23:32:37.726Z,100.00
2024-03-04T23:35:05.020Z,100.00
2024-03-04T23:37:31.473Z,100.00
2024-03-04T23:39:59.233Z,100.00
2024-03-04T23:42:25.685Z,100.00
2024-03-04T23:44:52.104Z,100.00
2024-03-04T23:47:18.508Z,100.00
2024-03-04T23:49:44.913Z,100.00
2024-03-04T23:52:11.327Z,100.00
2024-03-04T23:54:37.717Z,100.00
2024-03-04T23:57:05.482Z,100.00
2024-03-04T23:59:31.861Z,100.00
